Time;durP1;ratioP1;P1;durP2;ratioP2;P2;SDS_P1;SDS_P2;PMS_P1;PMS_P2;Temp;Humidity;BMP_temperature;BMP_pressure;BME280_temperature;BME280_humidity;BME280_pressure;Samples;Min_cycle;Max_cycle;Signal;HPM_P1;HPM_P2
2021/12/31 00:02:10;;;;;;;36.85;23.20;;;;;;;4.50;100.00;101874.50;4977086;28;20030;-70
2021/12/31 00:04:56;;;;;;;42.28;24.15;;;;;;;4.24;100.00;101888.53;4977214;28;20023;-68
2021/12/31 00:07:42;;;;;;;42.00;24.48;;;;;;;4.50;100.00;101896.16;4962803;28;20094;-69
2021/12/31 00:10:27;;;;;;;41.20;24.42;;;;;;;4.43;100.00;101886.47;4964374;28;20035;-69
2021/12/31 00:13:13;;;;;;;42.97;25.00;;;;;;;4.37;100.00;101885.44;4978007;28;20022;-67
2021/12/31 00:15:59;;;;;;;40.95;23.38;;;;;;;4.14;100.00;101897.78;4962865;28;20027;-68
2021/12/31 00:18:45;;;;;;;38.38;23.27;;;;;;;4.39;100.00;101889.81;4977860;28;20069;-68
2021/12/31 00:21:33;;;;;;;37.38;22.25;;;;;;;4.22;100.00;101890.25;4978113;28;20037;-69
2021/12/31 00:24:19;;;;;;;42.17;24.17;;;;;;;4.58;100.00;101876.47;4964528;28;20041;-68
2021/12/31 00:27:05;;;;;;;38.47;23.05;;;;;;;4.52;100.00;101876.34;4962301;28;20143;-68
2021/12/31 00:29:51;;;;;;;38.63;23.05;;;;;;;4.39;100.00;101873.38;4963481;28;20035;-69
2021/12/31 00:32:37;;;;;;;38.10;22.73;;;;;;;4.68;100.00;101875.00;4962794;28;20019;-68
2021/12/31 00:35:23;;;;;;;38.78;23.38;;;;;;;5.04;100.00;101874.16;4962233;28;20420;-67
2021/12/31 00:38:09;;;;;;;35.80;21.92;;;;;;;4.99;100.00;101875.75;4977100;28;20038;-67
2021/12/31 00:40:54;;;;;;;36.17;22.40;;;;;;;4.97;100.00;101884.34;4977148;28;20037;-68
2021/12/31 00:43:40;;;;;;;35.75;21.20;;;;;;;4.42;100.00;101871.75;4976279;28;20023;-72
2021/12/31 00:46:26;;;;;;;39.75;23.13;;;;;;;4.47;100.00;101872.72;4976001;28;20456;-71
2021/12/31 00:49:12;;;;;;;35.08;21.67;;;;;;;4.38;100.00;101869.91;4976243;28;20529;-68
2021/12/31 00:51:57;;;;;;;36.42;21.25;;;;;;;4.54;100.00;101863.38;4961949;28;20049;-68
2021/12/31 00:54:44;;;;;;;36.15;21.17;;;;;;;4.36;100.00;101881.97;4975850;28;20078;-68
2021/12/31 00:57:29;;;;;;;35.38;21.27;;;;;;;4.35;100.00;101882.78;4962472;28;20101;-68
2021/12/31 01:00:16;;;;;;;36.20;21.50;;;;;;;4.16;100.00;101879.69;4975281;28;20372;-68
2021/12/31 01:03:02;;;;;;;34.80;20.98;;;;;;;3.98;100.00;101864.50;4963206;28;20085;-68
2021/12/31 01:05:47;;;;;;;34.90;21.20;;;;;;;4.39;100.00;101856.09;4976204;28;20400;-68
2021/12/31 01:08:34;;;;;;;33.63;20.75;;;;;;;4.35;100.00;101856.00;4975630;28;20041;-69
2021/12/31 01:11:19;;;;;;;37.65;21.02;;;;;;;4.47;100.00;101845.91;4976580;28;20054;-69
2021/12/31 01:14:14;;;;;;;36.55;21.85;;;;;;;4.65;100.00;101855.03;4975745;28;20023;-68
2021/12/31 01:17:06;;;;;;;33.15;21.40;;;;;;;4.56;100.00;101839.25;4975132;28;20044;-68
2021/12/31 01:19:52;;;;;;;33.22;21.05;;;;;;;4.58;100.00;101836.66;4975546;28;20023;-68
2021/12/31 01:22:37;;;;;;;31.33;19.85;;;;;;;4.77;100.00;101834.56;4976060;28;20090;-68
2021/12/31 01:25:24;;;;;;;32.45;20.58;;;;;;;4.34;100.00;101843.88;4974808;28;20105;-69
2021/12/31 01:28:10;;;;;;;31.75;19.98;;;;;;;4.65;100.00;101856.75;4975738;28;20037;-69
2021/12/31 01:30:56;;;;;;;28.92;18.63;;;;;;;4.73;100.00;101860.41;4975608;28;20451;-68
2021/12/31 01:33:41;;;;;;;33.20;20.60;;;;;;;4.90;100.00;101872.06;4976183;28;20065;-68
2021/12/31 01:36:28;;;;;;;30.83;19.88;;;;;;;5.04;100.00;101871.56;4961295;28;20027;-69
2021/12/31 01:39:13;;;;;;;33.85;20.63;;;;;;;5.06;100.00;101872.47;4975714;28;20033;-68
2021/12/31 01:42:01;;;;;;;32.65;19.42;;;;;;;4.54;100.00;101878.94;4975309;28;20105;-68
2021/12/31 01:44:55;;;;;;;31.95;19.73;;;;;;;4.95;100.00;101892.09;4975163;28;20023;-68
2021/12/31 01:50:40;;;;;;;28.77;18.95;;;;;;;4.32;100.00;101882.72;4975567;28;20026;-68
2021/12/31 01:53:26;;;;;;;32.05;18.63;;;;;;;4.70;100.00;101879.38;4975599;28;20034;-69
2021/12/31 01:56:12;;;;;;;29.83;19.17;;;;;;;4.79;100.00;101866.63;4974640;28;20050;-68
2021/12/31 01:58:58;;;;;;;32.38;19.90;;;;;;;4.54;100.00;101860.78;4975589;28;20027;-69
2021/12/31 02:01:47;;;;;;;29.05;19.10;;;;;;;4.97;100.00;101866.16;4975275;28;20061;-69
2021/12/31 02:04:44;;;;;;;25.75;17.60;;;;;;;4.36;100.00;101868.13;4976075;28;20444;-68
2021/12/31 02:07:31;;;;;;;28.58;18.58;;;;;;;4.61;100.00;101876.56;4974230;28;20357;-69
2021/12/31 02:10:17;;;;;;;30.15;19.27;;;;;;;5.05;100.00;101877.63;4975189;28;20027;-69
2021/12/31 02:13:04;;;;;;;27.83;18.27;;;;;;;4.62;100.00;101877.41;4974843;28;20419;-68
2021/12/31 02:15:54;;;;;;;28.23;18.63;;;;;;;4.51;100.00;101884.94;4974513;28;20085;-67
2021/12/31 02:18:43;;;;;;;25.33;17.20;;;;;;;4.62;100.00;101882.59;4975552;28;20034;-67
2021/12/31 02:21:29;;;;;;;28.67;18.70;;;;;;;4.66;100.00;101872.34;4959755;28;20054;-69
2021/12/31 02:24:17;;;;;;;27.48;18.50;;;;;;;4.33;100.00;101866.31;4974882;28;20031;-69
2021/12/31 02:27:06;;;;;;;27.10;18.15;;;;;;;4.75;100.00;101859.59;4960128;28;20151;-68
2021/12/31 02:29:52;;;;;;;29.73;19.40;;;;;;;4.66;100.00;101848.09;4961004;28;20470;-68
2021/12/31 02:32:38;;;;;;;32.10;19.13;;;;;;;4.73;100.00;101844.81;4960562;28;20095;-69
2021/12/31 02:35:24;;;;;;;27.33;18.23;;;;;;;4.55;100.00;101847.84;4960766;28;20054;-69
2021/12/31 02:38:12;;;;;;;27.75;18.52;;;;;;;4.69;100.00;101850.78;4960534;28;20045;-71
2021/12/31 02:41:03;;;;;;;27.60;17.83;;;;;;;4.62;100.00;101844.56;4975764;28;20093;-69
2021/12/31 02:43:49;;;;;;;26.98;17.85;;;;;;;4.34;100.00;101841.28;4974904;28;20097;-69
2021/12/31 02:46:35;;;;;;;25.75;17.38;;;;;;;4.33;100.00;101842.09;4962104;28;20416;-68
2021/12/31 02:49:34;;;;;;;26.67;18.52;;;;;;;4.36;100.00;101844.75;4965505;28;20038;-68
2021/12/31 02:52:20;;;;;;;27.35;18.30;;;;;;;4.48;100.00;101843.38;4978425;28;20045;-68
2021/12/31 02:55:08;;;;;;;24.52;17.23;;;;;;;4.52;100.00;101858.19;4977849;28;20090;-68
2021/12/31 02:57:59;;;;;;;27.35;18.08;;;;;;;4.74;100.00;101862.16;4979857;28;20379;-68
2021/12/31 03:00:45;;;;;;;25.83;17.73;;;;;;;4.72;100.00;101851.75;4978636;28;20387;-68
2021/12/31 03:03:33;;;;;;;27.00;18.38;;;;;;;4.79;100.00;101858.81;4978020;28;20117;-68
2021/12/31 03:06:20;;;;;;;27.75;18.38;;;;;;;5.24;100.00;101872.00;4978423;28;20121;-69
2021/12/31 03:09:06;;;;;;;27.70;17.52;;;;;;;4.90;100.00;101885.94;4979460;28;20034;-68
2021/12/31 03:11:54;;;;;;;28.77;18.63;;;;;;;5.31;100.00;101890.34;4965014;28;20035;-69
2021/12/31 03:14:43;;;;;;;26.75;17.70;;;;;;;4.82;100.00;101874.47;4977768;28;20427;-68
2021/12/31 03:17:30;;;;;;;26.55;17.15;;;;;;;4.73;100.00;101878.56;4977859;28;20114;-69
2021/12/31 03:20:25;;;;;;;26.65;17.90;;;;;;;5.29;100.00;101880.78;4977796;28;20113;-69
2021/12/31 03:23:11;;;;;;;24.38;16.52;;;;;;;5.40;100.00;101885.34;4977958;28;20054;-69
2021/12/31 03:25:57;;;;;;;24.83;16.73;;;;;;;5.17;100.00;101889.19;4978416;28;20030;-68
2021/12/31 03:28:43;;;;;;;24.00;16.52;;;;;;;5.18;100.00;101880.53;4964836;28;20451;-69
2021/12/31 03:31:29;;;;;;;26.50;16.80;;;;;;;5.21;100.00;101867.63;4977833;28;20084;-68
2021/12/31 03:34:14;;;;;;;24.52;16.65;;;;;;;5.02;100.00;101872.34;4978542;28;20086;-68
2021/12/31 03:37:00;;;;;;;24.92;16.38;;;;;;;5.04;100.00;101884.56;4976975;28;20126;-69
2021/12/31 03:39:46;;;;;;;25.92;17.20;;;;;;;5.14;100.00;101886.50;4978478;28;20050;-68
2021/12/31 03:42:32;;;;;;;28.48;17.17;;;;;;;5.22;100.00;101897.94;4978402;28;20452;-69
2021/12/31 03:45:17;;;;;;;23.70;16.52;;;;;;;5.09;100.00;101897.63;4976779;28;20045;-69
2021/12/31 03:48:04;;;;;;;27.00;17.85;;;;;;;5.43;100.00;101907.06;4978789;28;20069;-68
2021/12/31 03:50:50;;;;;;;24.25;16.23;;;;;;;5.44;100.00;101918.34;4977316;28;20038;-68
2021/12/31 03:53:36;;;;;;;23.35;15.82;;;;;;;5.48;100.00;101920.19;4976987;28;20488;-68
2021/12/31 03:56:23;;;;;;;25.55;17.42;;;;;;;5.92;100.00;101913.38;4976015;28;20050;-69
2021/12/31 03:59:09;;;;;;;24.70;16.25;;;;;;;5.61;100.00;101894.44;4977065;28;20455;-69
2021/12/31 04:01:55;;;;;;;24.00;16.25;;;;;;;5.66;100.00;101895.44;4976976;28;20073;-68
2021/12/31 04:04:40;;;;;;;24.42;16.55;;;;;;;5.63;100.00;101901.47;4977296;28;20082;-68
2021/12/31 04:07:26;;;;;;;25.58;17.05;;;;;;;5.50;100.00;101890.78;4976882;28;20439;-69
2021/12/31 04:10:12;;;;;;;26.73;17.10;;;;;;;5.76;100.00;101876.59;4978126;28;20030;-68
2021/12/31 04:12:58;;;;;;;25.20;17.58;;;;;;;5.82;100.00;101881.97;4976397;28;20037;-69
2021/12/31 04:15:44;;;;;;;24.63;16.92;;;;;;;6.02;100.00;101881.47;4976329;28;20113;-69
2021/12/31 04:18:30;;;;;;;24.67;16.73;;;;;;;5.79;100.00;101874.91;4976622;28;20109;-68
2021/12/31 04:21:17;;;;;;;24.90;17.17;;;;;;;6.02;100.00;101878.88;4977794;28;20031;-68
2021/12/31 04:24:13;;;;;;;24.77;17.48;;;;;;;5.78;100.00;101873.16;4977086;28;20436;-68
2021/12/31 04:26:59;;;;;;;28.33;18.55;;;;;;;5.44;100.00;101888.91;4977655;28;20155;-69
2021/12/31 04:29:51;;;;;;;28.17;18.77;;;;;;;5.25;100.00;101894.53;4976958;28;20022;-68
2021/12/31 04:32:36;;;;;;;27.17;18.23;;;;;;;5.73;100.00;101881.72;4976733;28;20022;-67
2021/12/31 04:35:23;;;;;;;26.92;17.95;;;;;;;5.57;100.00;101859.72;4977914;28;20456;-68
2021/12/31 04:38:08;;;;;;;28.73;18.10;;;;;;;5.19;100.00;101864.09;4976378;28;20090;-68
2021/12/31 04:40:57;;;;;;;28.40;18.33;;;;;;;5.59;100.00;101860.66;4977835;28;20046;-68
2021/12/31 04:43:42;;;;;;;23.05;15.95;;;;;;;5.32;100.00;101878.25;4962074;28;20102;-68
2021/12/31 04:46:28;;;;;;;24.17;15.52;;;;;;;4.95;100.00;101867.88;4976445;28;20090;-69
2021/12/31 04:49:14;;;;;;;23.52;16.60;;;;;;;4.90;100.00;101870.34;4977920;28;20484;-69
2021/12/31 05:22:05;;;;;;;27.00;17.33;;;;;;;4.17;100.00;101871.06;5481590;23;19922;-68
2021/12/31 05:24:51;;;;;;;26.42;17.20;;;;;;;4.18;100.00;101867.66;4957646;29;20118;-68
2021/12/31 05:27:36;;;;;;;29.90;18.55;;;;;;;4.58;100.00;101870.41;4936638;29;20028;-68
2021/12/31 05:30:23;;;;;;;26.42;17.40;;;;;;;4.34;100.00;101870.66;4936865;29;20122;-68
2021/12/31 05:33:08;;;;;;;28.05;17.42;;;;;;;4.35;100.00;101869.81;4937341;29;20031;-69
2021/12/31 05:35:56;;;;;;;27.48;17.95;;;;;;;4.23;100.00;101861.72;4938544;29;20376;-68
2021/12/31 05:38:42;;;;;;;28.65;19.02;;;;;;;4.47;100.00;101869.28;4955928;29;20039;-68
2021/12/31 05:41:29;;;;;;;29.88;20.10;;;;;;;4.50;100.00;101878.00;4957083;29;20050;-69
2021/12/31 05:44:14;;;;;;;35.50;23.10;;;;;;;4.31;100.00;101880.94;4957136;29;20023;-68
2021/12/31 05:47:00;;;;;;;38.38;23.00;;;;;;;4.61;100.00;101875.66;4957049;29;20031;-68
2021/12/31 05:49:46;;;;;;;41.20;25.77;;;;;;;4.88;100.00;101873.75;4956856;29;20122;-69
2021/12/31 05:52:32;;;;;;;38.00;24.77;;;;;;;4.89;100.00;101871.19;4942854;29;20511;-69
2021/12/31 05:55:18;;;;;;;35.72;23.42;;;;;;;5.01;100.00;101874.09;4957750;28;20051;-68
2021/12/31 05:58:03;;;;;;;34.90;21.95;;;;;;;4.66;100.00;101877.53;4957381;28;20023;-68
2021/12/31 06:00:49;;;;;;;35.55;22.75;;;;;;;4.93;100.00;101878.22;4956923;29;20114;-69
2021/12/31 06:03:35;;;;;;;31.83;21.73;;;;;;;4.35;100.00;101877.59;4942704;29;20031;-69
2021/12/31 06:06:21;;;;;;;34.88;21.23;;;;;;;4.37;100.00;101891.50;4956566;29;20039;-68
2021/12/31 06:09:07;;;;;;;32.25;20.92;;;;;;;4.33;100.00;101894.84;4942478;29;20113;-68
2021/12/31 06:11:54;;;;;;;31.17;19.80;;;;;;;4.16;100.00;101903.03;4943002;29;20035;-68
2021/12/31 06:14:40;;;;;;;32.83;21.10;;;;;;;4.26;100.00;101903.31;4956454;29;20523;-69
2021/12/31 06:17:27;;;;;;;35.58;21.95;;;;;;;4.36;100.00;101902.72;4956399;29;20039;-69
2021/12/31 06:20:13;;;;;;;31.35;21.30;;;;;;;4.42;100.00;101912.41;4955023;28;20037;-68
2021/12/31 06:22:59;;;;;;;38.53;24.15;;;;;;;4.52;100.00;101902.28;4956310;29;20436;-68
2021/12/31 06:25:45;;;;;;;35.60;23.23;;;;;;;4.40;100.00;101906.28;4956177;29;20032;-68
2021/12/31 06:28:30;;;;;;;40.00;24.98;;;;;;;4.54;100.00;101900.59;4956727;29;20027;-68
2021/12/31 06:31:16;;;;;;;39.55;23.27;;;;;;;4.31;100.00;101901.72;4957025;28;20027;-68
2021/12/31 06:34:02;;;;;;;37.60;23.65;;;;;;;4.48;100.00;101894.38;4956158;29;20069;-68
2021/12/31 06:36:48;;;;;;;36.55;22.50;;;;;;;4.43;100.00;101898.56;4956736;29;20065;-68
2021/12/31 06:39:35;;;;;;;35.72;22.23;;;;;;;4.39;100.00;101897.59;4955971;29;20130;-69
2021/12/31 06:42:21;;;;;;;35.03;22.08;;;;;;;4.53;100.00;101903.16;4956718;28;20027;-68
2021/12/31 06:45:07;;;;;;;33.53;21.33;;;;;;;4.62;100.00;101905.97;4955887;29;20098;-69
2021/12/31 06:47:53;;;;;;;31.77;20.17;;;;;;;4.45;100.00;101905.56;4942664;29;20036;-68
2021/12/31 06:50:39;;;;;;;31.60;20.90;;;;;;;4.51;100.00;101910.88;4956488;28;20034;-68
2021/12/31 06:53:24;;;;;;;37.03;21.92;;;;;;;4.74;100.00;101904.56;4956409;28;20479;-68
2021/12/31 06:56:10;;;;;;;31.05;20.50;;;;;;;4.72;100.00;101902.78;4956542;28;20433;-68
2021/12/31 06:58:56;;;;;;;32.58;22.25;;;;;;;5.04;100.00;101896.66;4955017;29;20408;-69
2021/12/31 07:23:30;;;;;;;32.97;21.17;;;;;;;5.66;100.00;101908.44;5424495;23;20094;-68
2021/12/31 07:26:16;;;;;;;33.10;21.30;;;;;;;5.63;100.00;101905.78;4975068;28;20113;-68
2021/12/31 07:29:02;;;;;;;34.67;22.08;;;;;;;5.96;100.00;101901.28;4975953;28;20122;-69
2021/12/31 07:31:47;;;;;;;35.75;22.70;;;;;;;6.20;100.00;101900.06;4976069;28;20023;-68
2021/12/31 07:34:33;;;;;;;32.72;22.55;;;;;;;6.70;100.00;101898.34;4965434;28;20105;-68
2021/12/31 07:37:19;;;;;;;34.90;24.13;;;;;;;6.80;100.00;101897.66;4978474;28;20423;-69
2021/12/31 07:40:07;;;;;;;33.30;20.80;;;;;;;7.10;100.00;101888.59;4978408;28;20113;-69
2021/12/31 07:42:53;;;;;;;31.80;20.75;;;;;;;6.87;100.00;101886.50;4964620;28;20081;-69
2021/12/31 07:45:40;;;;;;;32.88;20.63;;;;;;;7.47;100.00;101884.78;4978091;28;20046;-69
2021/12/31 07:48:26;;;;;;;29.83;19.90;;;;;;;7.24;100.00;101879.22;4977342;28;20027;-69
2021/12/31 07:51:11;;;;;;;27.70;19.45;;;;;;;7.68;100.00;101883.31;4964621;28;20034;-69
2021/12/31 07:53:57;;;;;;;30.02;18.90;;;;;;;8.05;100.00;101875.09;4978153;28;20343;-68
2021/12/31 07:56:43;;;;;;;24.83;17.50;;;;;;;7.78;100.00;101866.06;4964134;28;20030;-68
2021/12/31 07:59:29;;;;;;;25.52;18.30;;;;;;;7.56;100.00;101869.28;4963514;28;20023;-69
2021/12/31 08:02:14;;;;;;;25.27;16.90;;;;;;;7.95;100.00;101868.00;4963981;28;20038;-69
2021/12/31 08:05:00;;;;;;;26.77;16.63;;;;;;;7.95;100.00;101857.56;4978397;28;20030;-70
2021/12/31 08:07:46;;;;;;;25.83;15.80;;;;;;;7.55;100.00;101851.88;4978114;28;20593;-69
2021/12/31 08:10:37;;;;;;;23.50;15.20;;;;;;;8.25;100.00;101849.22;4978457;28;20113;-69
2021/12/31 08:13:25;;;;;;;20.83;13.90;;;;;;;8.37;100.00;101850.19;4963912;28;20022;-67
2021/12/31 08:16:11;;;;;;;17.52;12.40;;;;;;;8.28;100.00;101849.25;4977878;28;20019;-69
2021/12/31 08:18:56;;;;;;;14.88;10.55;;;;;;;8.26;100.00;101859.69;4964215;28;20110;-69
2021/12/31 08:21:42;;;;;;;15.48;10.25;;;;;;;8.08;100.00;101858.59;4977679;28;20058;-68
2021/12/31 08:24:28;;;;;;;14.90;10.43;;;;;;;8.75;100.00;101861.00;4977337;28;20380;-68
2021/12/31 08:27:14;;;;;;;17.10;11.00;;;;;;;8.70;100.00;101860.97;4977430;28;20031;-68
2021/12/31 08:29:59;;;;;;;15.88;10.75;;;;;;;8.60;100.00;101855.66;4978154;28;20034;-69
2021/12/31 08:32:45;;;;;;;15.30;10.18;;;;;;;8.29;100.00;101858.84;4963311;28;20035;-69
2021/12/31 08:35:31;;;;;;;14.73;10.10;;;;;;;8.61;100.00;101860.88;4977446;28;20022;-68
2021/12/31 08:38:17;;;;;;;14.45;10.27;;;;;;;8.09;100.00;101860.34;4977664;28;20031;-68
2021/12/31 08:41:03;;;;;;;16.92;10.60;;;;;;;8.65;100.00;101864.41;4978187;28;20118;-69
2021/12/31 08:43:48;;;;;;;14.02;10.27;;;;;;;9.03;100.00;101876.91;4963724;28;20033;-70
2021/12/31 08:46:35;;;;;;;14.38;10.43;;;;;;;8.13;100.00;101881.28;4977386;28;20031;-69
2021/12/31 08:49:23;;;;;;;15.77;11.13;;;;;;;8.53;100.00;101870.38;4964525;28;20462;-68
2021/12/31 08:52:09;;;;;;;13.02;10.00;;;;;;;8.40;100.00;101870.28;4977865;28;20045;-69
2021/12/31 08:54:55;;;;;;;15.70;11.38;;;;;;;8.72;100.00;101866.22;4978150;28;20404;-70
2021/12/31 08:57:41;;;;;;;14.65;10.55;;;;;;;8.26;100.00;101856.19;4976895;28;20341;-69
2021/12/31 09:00:26;;;;;;;15.70;11.15;;;;;;;7.92;100.00;101841.00;4977319;28;20198;-69
2021/12/31 09:03:12;;;;;;;14.65;10.93;;;;;;;8.04;100.00;101855.06;4976844;28;20034;-70
2021/12/31 09:05:58;;;;;;;16.98;11.55;;;;;;;7.70;100.00;101852.94;4963549;28;20518;-69
2021/12/31 09:08:45;;;;;;;19.13;12.10;;;;;;;8.14;100.00;101843.88;4963288;28;20023;-69
2021/12/31 09:11:31;;;;;;;18.08;12.02;;;;;;;7.76;100.00;101852.13;4977292;28;20031;-69
2021/12/31 09:14:17;;;;;;;18.55;12.63;;;;;;;7.85;100.00;101847.91;4976624;28;20106;-69
2021/12/31 09:17:03;;;;;;;18.20;12.80;;;;;;;7.27;100.00;101857.56;4976821;28;20371;-68
2021/12/31 09:19:49;;;;;;;19.92;13.25;;;;;;;7.90;100.00;101868.81;4976978;28;20034;-69
2021/12/31 09:22:35;;;;;;;16.35;12.00;;;;;;;8.07;100.00;101869.88;4976846;28;20050;-68
2021/12/31 09:25:21;;;;;;;20.98;13.57;;;;;;;8.12;100.00;101870.81;4976604;28;20035;-70
2021/12/31 09:28:07;;;;;;;19.35;14.02;;;;;;;7.87;100.00;101854.00;4976561;28;20054;-70
2021/12/31 09:30:53;;;;;;;21.02;13.75;;;;;;;7.85;100.00;101849.63;4976961;28;20054;-69
2021/12/31 09:33:39;;;;;;;23.58;15.90;;;;;;;7.86;100.00;101844.44;4962795;28;20022;-69
2021/12/31 09:36:25;;;;;;;21.75;14.68;;;;;;;7.90;100.00;101848.81;4976118;28;20022;-70
2021/12/31 09:39:11;;;;;;;23.42;15.55;;;;;;;8.13;100.00;101846.47;4976282;28;20089;-70
2021/12/31 09:42:00;;;;;;;27.23;17.85;;;;;;;7.95;100.00;101854.97;4975952;28;20054;-71
2021/12/31 09:44:47;;;;;;;25.60;17.65;;;;;;;8.58;100.00;101837.34;4976054;28;20030;-70
2021/12/31 09:47:33;;;;;;;21.80;15.57;;;;;;;8.28;100.00;101813.56;4976458;28;20035;-69
2021/12/31 09:50:21;;;;;;;21.02;14.35;;;;;;;8.39;100.00;101819.78;4962481;28;20132;-69
2021/12/31 09:53:09;;;;;;;22.85;15.60;;;;;;;7.52;100.00;101820.53;4962924;28;20049;-70
2021/12/31 09:55:55;;;;;;;21.35;15.02;;;;;;;7.81;100.00;101822.63;4975440;28;20046;-70
2021/12/31 09:58:41;;;;;;;20.80;14.77;;;;;;;8.07;100.00;101821.16;4976484;28;20062;-70
2021/12/31 10:01:28;;;;;;;19.80;13.88;;;;;;;8.31;100.00;101813.59;4977179;28;20059;-70
2021/12/31 10:04:14;;;;;;;21.15;13.45;;;;;;;8.09;100.00;101809.03;4976478;28;20038;-69
2021/12/31 10:07:05;;;;;;;19.80;12.90;;;;;;;8.36;100.00;101798.00;4976090;28;20018;-70
2021/12/31 10:10:11;;;;;;;26.55;15.52;;;;;;;8.44;100.00;101796.31;4962010;28;20027;-71
2021/12/31 10:12:57;;;;;;;80.53;36.00;;;;;;;8.38;100.00;101796.25;4976280;28;20475;-71
2021/12/31 10:15:47;;;;;;;78.43;40.13;;;;;;;8.31;100.00;101795.31;4975611;28;20034;-69
2021/12/31 10:18:35;;;;;;;36.97;21.50;;;;;;;9.03;100.00;101793.25;4975992;28;20038;-71
2021/12/31 10:21:34;;;;;;;25.92;16.00;;;;;;;8.64;100.00;101781.69;4962071;28;20348;-71
2021/12/31 10:24:20;;;;;;;24.38;15.88;;;;;;;8.74;100.00;101788.72;4975340;28;20420;-70
2021/12/31 10:27:09;;;;;;;20.00;13.25;;;;;;;8.79;100.00;101776.53;4975988;28;20074;-69
2021/12/31 10:30:00;;;;;;;23.50;15.23;;;;;;;8.37;100.00;101764.03;4975853;28;20037;-69
2021/12/31 10:32:46;;;;;;;20.48;13.80;;;;;;;8.79;100.00;101756.53;4976097;28;20460;-70
2021/12/31 10:35:41;;;;;;;19.38;12.65;;;;;;;8.78;100.00;101754.78;4975111;28;20022;-71
2021/12/31 10:38:39;;;;;;;16.17;11.30;;;;;;;8.61;100.00;101745.94;4961321;28;20090;-71
2021/12/31 10:41:25;;;;;;;16.73;12.20;;;;;;;8.89;100.00;101734.78;4961891;28;20019;-69
2021/12/31 10:44:11;;;;;;;18.25;12.25;;;;;;;9.29;100.00;101738.50;4975381;28;20023;-69
2021/12/31 10:47:11;;;;;;;22.80;12.82;;;;;;;9.67;100.00;101729.00;4975309;28;20038;-71
2021/12/31 10:50:00;;;;;;;17.92;12.18;;;;;;;9.28;100.00;101741.94;4975871;28;20094;-70
2021/12/31 10:52:58;;;;;;;18.02;11.07;;;;;;;9.19;100.00;101749.75;4975642;28;20030;-70
2021/12/31 10:55:45;;;;;;;15.93;11.40;;;;;;;8.90;100.00;101740.91;4974566;28;20019;-70
2021/12/31 10:58:31;;;;;;;18.25;12.20;;;;;;;8.98;100.00;101740.09;4976245;28;20031;-69
2021/12/31 11:01:17;;;;;;;16.27;10.82;;;;;;;9.02;100.00;101735.75;4976273;28;20058;-70
2021/12/31 11:04:04;;;;;;;16.20;11.43;;;;;;;9.23;100.00;101723.66;4960424;28;20034;-69
2021/12/31 11:06:50;;;;;;;18.48;11.50;;;;;;;9.04;100.00;101719.19;4962193;28;20031;-71
2021/12/31 11:09:36;;;;;;;20.08;12.82;;;;;;;8.83;100.00;101719.09;4978394;28;20031;-69
2021/12/31 11:12:22;;;;;;;20.42;13.02;;;;;;;8.86;100.00;101719.13;4965869;28;20062;-70
2021/12/31 11:15:08;;;;;;;17.63;11.88;;;;;;;9.06;100.00;101727.03;4964771;28;20034;-70
2021/12/31 11:17:54;;;;;;;17.55;12.55;;;;;;;9.18;100.00;101730.59;4979810;28;20069;-70
2021/12/31 11:20:41;;;;;;;18.13;11.88;;;;;;;9.07;100.00;101739.25;4964267;28;20031;-70
2021/12/31 11:23:32;;;;;;;17.52;11.73;;;;;;;9.07;100.00;101739.25;4978707;28;20055;-69
2021/12/31 11:26:29;;;;;;;17.90;12.05;;;;;;;9.27;100.00;101729.75;4978200;28;20448;-68
2021/12/31 11:29:18;;;;;;;18.05;12.38;;;;;;;9.29;100.00;101722.78;4979079;28;20119;-70
2021/12/31 11:32:05;;;;;;;19.20;12.40;;;;;;;9.29;100.00;101718.41;4978602;28;20456;-71
2021/12/31 11:35:27;;;;;;;17.58;12.38;;;;;;;8.87;100.00;101722.59;4978384;28;20034;-70
2021/12/31 11:38:42;;;;;;;17.33;11.48;;;;;;;8.96;100.00;101720.03;4978689;28;20030;-70
2021/12/31 11:41:29;;;;;;;17.75;12.93;;;;;;;8.88;100.00;101726.97;4979362;28;20030;-69
2021/12/31 11:44:17;;;;;;;20.38;12.63;;;;;;;9.06;100.00;101734.88;4978445;28;20019;-69
2021/12/31 11:47:17;;;;;;;20.45;13.90;;;;;;;9.08;100.00;101738.38;4977922;28;20082;-71
2021/12/31 11:50:32;;;;;;;22.65;13.98;;;;;;;9.02;100.00;101734.00;4976430;28;20046;-70
2021/12/31 11:53:18;;;;;;;19.70;14.00;;;;;;;9.21;100.00;101733.22;4979220;28;20355;-69
2021/12/31 11:56:03;;;;;;;19.80;13.70;;;;;;;9.45;100.00;101735.91;4977599;28;20059;-71
2021/12/31 11:58:49;;;;;;;20.92;13.50;;;;;;;9.30;100.00;101737.63;4978921;28;20062;-71
2021/12/31 12:01:50;;;;;;;20.42;13.77;;;;;;;9.39;100.00;101724.56;4978389;28;20030;-71
2021/12/31 12:04:37;;;;;;;24.10;15.68;;;;;;;8.92;100.00;101723.50;4977885;28;20042;-71
2021/12/31 12:07:51;;;;;;;21.70;14.25;;;;;;;8.95;100.00;101727.00;4978034;28;20415;-72
2021/12/31 12:10:37;;;;;;;19.05;13.25;;;;;;;9.53;100.00;101718.50;4978411;28;20530;-70
2021/12/31 12:13:25;;;;;;;19.52;13.75;;;;;;;9.31;100.00;101721.03;4978762;28;20030;-71
2021/12/31 12:16:50;;;;;;;22.77;14.80;;;;;;;8.75;100.00;101725.13;4977876;28;20058;-73
2021/12/31 12:20:02;;;;;;;20.55;13.82;;;;;;;8.95;100.00;101713.03;4978055;28;20105;-72
2021/12/31 12:22:54;;;;;;;21.65;13.82;;;;;;;8.85;100.00;101706.91;4978768;28;20078;-69
2021/12/31 12:25:41;;;;;;;21.67;14.13;;;;;;;9.28;100.00;101703.59;4977717;28;20098;-71
2021/12/31 12:28:26;;;;;;;21.90;14.48;;;;;;;8.85;100.00;101691.22;4978170;28;20034;-70
2021/12/31 12:31:17;;;;;;;18.88;13.75;;;;;;;8.67;100.00;101690.25;4964817;28;20035;-71
2021/12/31 12:34:02;;;;;;;22.38;14.68;;;;;;;8.82;100.00;101688.59;4978205;28;20109;-72
2021/12/31 12:36:53;;;;;;;24.25;14.15;;;;;;;8.99;100.00;101678.22;4951288;28;20041;-74
2021/12/31 12:39:39;;;;;;;20.65;13.35;;;;;;;8.92;100.00;101679.09;4977702;28;20092;-71
2021/12/31 12:42:25;;;;;;;20.70;14.15;;;;;;;8.41;100.00;101665.72;4964291;28;20027;-72
2021/12/31 12:45:11;;;;;;;19.48;13.00;;;;;;;8.71;100.00;101665.88;4976635;28;20031;-72
2021/12/31 12:47:56;;;;;;;21.17;13.15;;;;;;;8.95;100.00;101659.03;4963851;28;20034;-70
2021/12/31 12:50:50;;;;;;;20.95;13.88;;;;;;;8.72;100.00;101651.97;4977227;28;20472;-72
2021/12/31 12:53:38;;;;;;;19.13;13.77;;;;;;;8.67;100.00;101641.50;4977846;28;20026;-72
2021/12/31 12:56:24;;;;;;;21.67;14.23;;;;;;;9.20;100.00;101644.28;4977623;28;20448;-71
2021/12/31 12:59:19;;;;;;;23.48;15.10;;;;;;;8.82;100.00;101643.31;4977147;28;20448;-71
2021/12/31 13:02:05;;;;;;;20.88;13.75;;;;;;;9.50;100.00;101640.03;4977758;28;20026;-72
2021/12/31 13:04:51;;;;;;;22.58;14.55;;;;;;;9.33;100.00;101640.88;4962847;28;20034;-72
2021/12/31 13:07:38;;;;;;;23.25;15.50;;;;;;;9.17;100.00;101649.53;4977287;28;20042;-72
2021/12/31 13:10:25;;;;;;;20.70;14.07;;;;;;;8.58;100.00;101648.41;4978034;28;20094;-72
2021/12/31 13:13:14;;;;;;;19.70;14.00;;;;;;;8.97;100.00;101654.69;4976944;28;20027;-72
2021/12/31 13:16:01;;;;;;;23.33;14.30;;;;;;;9.04;100.00;101642.50;4976799;28;20055;-72
2021/12/31 13:18:55;;;;;;;22.05;14.15;;;;;;;9.13;100.00;101660.84;4963454;28;20455;-72
2021/12/31 13:21:42;;;;;;;20.00;13.57;;;;;;;9.48;100.00;101648.72;4976514;28;20058;-72
2021/12/31 13:24:28;;;;;;;22.20;14.93;;;;;;;9.17;100.00;101653.00;4976514;28;20487;-71
2021/12/31 13:27:19;;;;;;;19.30;13.40;;;;;;;9.11;100.00;101662.56;4976411;28;20412;-72
2021/12/31 13:30:12;;;;;;;18.98;13.70;;;;;;;9.00;100.00;101664.28;4963201;28;20026;-72
2021/12/31 13:32:58;;;;;;;20.23;14.02;;;;;;;9.55;100.00;101664.44;4975405;28;20475;-72
2021/12/31 13:35:43;;;;;;;21.20;14.68;;;;;;;9.83;100.00;101667.97;4976784;28;20110;-71
2021/12/31 13:38:29;;;;;;;20.88;14.63;;;;;;;9.91;100.00;101658.38;4976312;28;20033;-72